< < Back
Terminal Aerodrome Forecast


Current Version              Previous Versions:   1  2  3  4  5  6  7  8  9  

Terminal Aerodrome Forecast

479
FTUS42 KCAE 291810 AAA
TAFCAE
TAF AMD
KCAE 291810Z 2918/3018 06007KT P6SM FEW040 BKN150
     FM292300 VRB03KT P6SM FEW040 BKN150
     FM301400 11006KT P6SM SCT030 OVC150=

Latest METAR

867
SAUS80 KWBC 300100 RRA
MTRCAE
METAR KCAE 300056Z 13004KT 10SM OVC150 27/14 A3013 RMK AO2 SLP199
T02670139


USA.gov is the U.S. government's official web portal to all federal, state and local government web resources and services.